Time;durP1;ratioP1;P1;durP2;ratioP2;P2;SDS_P1;SDS_P2;PMS_P1;PMS_P2;Temp;Humidity;BMP_temperature;BMP_pressure;BME280_temperature;BME280_humidity;BME280_pressure;Samples;Min_cycle;Max_cycle;Signal;HPM_P1;HPM_P2
2022/10/27 00:00:22;;;;;;;43.10;20.00;;;;;;;12.41;100.00;101892.06;6192617;23;20005;-74
2022/10/27 00:02:47;;;;;;;47.35;20.85;;;;;;;12.38;100.00;101891.47;6194451;23;20001;-74
2022/10/27 00:05:12;;;;;;;45.88;19.70;;;;;;;12.42;100.00;101884.75;6193136;23;20052;-74
2022/10/27 00:07:38;;;;;;;33.38;16.15;;;;;;;12.44;100.00;101890.91;6192275;23;20028;-74
2022/10/27 00:10:05;;;;;;;41.63;18.25;;;;;;;12.54;100.00;101886.31;6193768;23;20007;-74
2022/10/27 00:12:31;;;;;;;45.28;20.40;;;;;;;12.54;100.00;101891.75;6192393;23;20005;-74
2022/10/27 00:14:57;;;;;;;41.95;21.27;;;;;;;12.57;100.00;101891.44;6192755;23;20084;-73
2022/10/27 00:17:22;;;;;;;38.75;19.05;;;;;;;12.36;100.00;101888.06;6193388;23;20037;-73
2022/10/27 00:19:47;;;;;;;50.30;22.25;;;;;;;12.26;100.00;101896.22;6193033;23;20067;-73
2022/10/27 00:22:13;;;;;;;49.95;23.15;;;;;;;12.37;100.00;101897.91;6192375;23;20080;-74
2022/10/27 00:24:38;;;;;;;51.97;22.88;;;;;;;12.31;100.00;101896.63;6193712;23;20001;-75
2022/10/27 00:27:03;;;;;;;45.28;21.98;;;;;;;12.25;100.00;101902.63;6193012;23;20147;-73
2022/10/27 00:29:29;;;;;;;46.25;23.58;;;;;;;12.29;100.00;101908.66;6194399;23;20008;-75
2022/10/27 00:31:54;;;;;;;53.13;24.30;;;;;;;12.35;100.00;101897.22;6194497;23;20012;-73
2022/10/27 00:34:19;;;;;;;39.58;23.88;;;;;;;12.33;100.00;101910.09;6195350;23;20005;-74
2022/10/27 00:36:45;;;;;;;46.25;22.20;;;;;;;12.43;100.00;101900.06;6195989;23;20008;-73
2022/10/27 00:39:10;;;;;;;49.42;22.73;;;;;;;12.45;100.00;101907.06;6195721;23;20004;-74
2022/10/27 00:41:38;;;;;;;47.08;24.58;;;;;;;12.50;100.00;101912.03;6194580;23;20009;-73
2022/10/27 00:44:36;;;;;;;43.63;22.45;;;;;;;12.42;100.00;101903.78;6195655;23;20020;-73
2022/10/27 00:47:12;;;;;;;56.22;24.60;;;;;;;12.42;100.00;101909.22;6194441;23;20004;-74
2022/10/27 00:49:46;;;;;;;56.65;24.88;;;;;;;12.21;100.00;101912.94;6193976;23;20083;-74
2022/10/27 00:52:24;;;;;;;48.10;24.00;;;;;;;12.29;100.00;101911.38;6194631;23;20020;-74
2022/10/27 00:54:50;;;;;;;38.05;20.65;;;;;;;12.26;100.00;101919.78;6196116;23;20005;-73
2022/10/27 00:57:15;;;;;;;52.28;22.92;;;;;;;12.36;100.00;101920.66;6193730;23;20001;-74
2022/10/27 00:59:41;;;;;;;53.15;22.15;;;;;;;12.42;100.00;101914.63;6195725;23;20040;-73
2022/10/27 01:02:09;;;;;;;47.22;23.30;;;;;;;12.44;100.00;101912.63;6194094;23;20043;-73
2022/10/27 01:04:53;;;;;;;50.42;22.33;;;;;;;12.48;100.00;101917.63;6194991;23;20083;-73
2022/10/27 01:07:19;;;;;;;42.15;21.48;;;;;;;12.34;100.00;101917.22;6193862;23;20000;-73
2022/10/27 01:09:45;;;;;;;41.42;22.52;;;;;;;12.37;100.00;101922.34;6194144;23;20066;-74
2022/10/27 01:12:10;;;;;;;59.83;23.85;;;;;;;12.35;100.00;101924.38;6193622;23;19997;-74
2022/10/27 01:14:36;;;;;;;44.92;22.98;;;;;;;12.38;100.00;101929.50;6195673;23;20024;-73
2022/10/27 01:17:23;;;;;;;62.03;23.27;;;;;;;12.41;100.00;101929.22;6194511;23;20016;-73
2022/10/27 01:20:29;;;;;;;44.92;23.33;;;;;;;12.35;100.00;101924.38;6193745;23;20012;-73
2022/10/27 01:23:05;;;;;;;34.83;18.38;;;;;;;12.44;100.00;101928.91;6195166;23;20009;-73
2022/10/27 01:26:13;;;;;;;45.67;24.35;;;;;;;12.38;100.00;101929.50;6195129;23;20073;-73
2022/10/27 01:28:57;;;;;;;42.63;18.27;;;;;;;12.55;100.00;101931.50;6193691;23;20008;-73
2022/10/27 01:31:40;;;;;;;42.28;21.35;;;;;;;12.54;100.00;101934.34;6194674;23;20086;-74
2022/10/27 01:34:30;;;;;;;40.95;21.30;;;;;;;12.46;100.00;101929.66;6194151;23;20128;-74
2022/10/27 01:37:17;;;;;;;44.53;20.20;;;;;;;12.55;100.00;101931.50;6194526;23;20050;-73
2022/10/27 01:40:05;;;;;;;50.40;22.58;;;;;;;12.54;100.00;101929.78;6195176;23;20009;-74
2022/10/27 01:42:40;;;;;;;49.97;23.60;;;;;;;12.50;100.00;101933.78;6195415;23;20035;-75
2022/10/27 01:45:09;;;;;;;42.03;20.10;;;;;;;12.63;100.00;101934.34;6193851;23;20000;-74
2022/10/27 01:47:36;;;;;;;44.95;23.58;;;;;;;12.64;100.00;101933.31;6194582;23;20035;-74
2022/10/27 01:50:02;;;;;;;30.73;17.17;;;;;;;12.79;100.00;101935.59;6194308;23;20028;-74
2022/10/27 01:52:45;;;;;;;38.83;20.05;;;;;;;12.79;100.00;101939.19;6196017;23;20012;-74
2022/10/27 01:55:16;;;;;;;49.42;21.33;;;;;;;12.87;100.00;101946.59;6193922;23;20009;-74
2022/10/27 01:57:57;;;;;;;48.58;21.48;;;;;;;12.64;100.00;101949.63;6193272;23;20037;-74
2022/10/27 02:00:22;;;;;;;43.50;21.08;;;;;;;12.56;100.00;101943.22;6193271;23;20000;-74
2022/10/27 02:03:09;;;;;;;45.15;21.33;;;;;;;12.55;100.00;101952.38;6195030;23;20000;-74
2022/10/27 02:05:43;;;;;;;46.90;21.70;;;;;;;12.43;100.00;101955.22;6193753;23;20012;-74
2022/10/27 02:08:20;;;;;;;50.55;20.73;;;;;;;12.43;100.00;101940.78;6192725;23;20006;-74
2022/10/27 02:10:53;;;;;;;51.03;21.58;;;;;;;12.55;100.00;101947.78;6166821;23;20029;-78
2022/10/27 02:13:19;;;;;;;44.30;20.23;;;;;;;12.55;100.00;101958.66;6140501;23;20002;-78
2022/10/27 02:15:53;;;;;;;39.83;18.73;;;;;;;12.47;100.00;101962.09;6140537;23;20013;-78
2022/10/27 02:18:26;;;;;;;40.38;20.52;;;;;;;12.62;100.00;101959.78;6140715;23;20001;-76
2022/10/27 02:20:57;;;;;;;42.20;18.45;;;;;;;12.50;100.00;101966.38;6136182;23;19998;-77
2022/10/27 02:23:22;;;;;;;41.88;19.20;;;;;;;12.48;100.00;101973.81;6137100;23;20009;-78
2022/10/27 02:25:55;;;;;;;35.80;17.83;;;;;;;12.33;100.00;101975.25;6123779;23;20053;-81
2022/10/27 02:28:28;;;;;;;41.58;20.27;;;;;;;12.48;100.00;101969.25;6120100;23;20096;-79
2022/10/27 02:30:57;;;;;;;44.95;22.40;;;;;;;12.54;100.00;101977.84;6146613;23;19997;-78
2022/10/27 02:33:24;;;;;;;46.03;20.70;;;;;;;12.55;100.00;101977.69;6146937;23;20006;-81
2022/10/27 02:35:50;;;;;;;39.58;17.60;;;;;;;12.60;100.00;101978.09;6125975;23;20462;-80
2022/10/27 02:38:16;;;;;;;38.20;18.20;;;;;;;12.42;100.00;101977.13;6149566;23;20025;-78
2022/10/27 02:40:41;;;;;;;55.40;20.70;;;;;;;12.43;100.00;101976.97;6147570;23;20033;-80
2022/10/27 02:43:07;;;;;;;45.88;21.20;;;;;;;12.56;100.00;101976.66;6149158;23;20017;-76
2022/10/27 02:45:32;;;;;;;45.22;19.77;;;;;;;12.47;100.00;101977.53;6114624;23;20053;-78
2022/10/27 02:47:57;;;;;;;37.90;19.63;;;;;;;12.63;100.00;101988.69;6134563;23;20002;-79
2022/10/27 02:50:23;;;;;;;49.70;17.58;;;;;;;12.74;100.00;101983.09;6134035;23;20002;-78
2022/10/27 02:52:48;;;;;;;33.25;17.33;;;;;;;12.89;100.00;101988.94;6134259;23;20006;-78
2022/10/27 02:55:13;;;;;;;39.50;18.65;;;;;;;12.89;100.00;101988.06;6109956;23;20013;-78
2022/10/27 02:57:39;;;;;;;37.42;17.60;;;;;;;12.96;100.00;101995.50;6109785;23;20001;-77
2022/10/27 03:00:05;;;;;;;33.97;17.30;;;;;;;13.00;100.00;102001.50;6134738;23;20002;-78
2022/10/27 03:02:30;;;;;;;39.25;16.15;;;;;;;13.03;100.00;102006.63;6135088;23;20057;-78
2022/10/27 03:04:56;;;;;;;32.88;15.95;;;;;;;13.11;100.00;102004.06;6135260;23;20002;-78
2022/10/27 03:07:22;;;;;;;32.75;15.27;;;;;;;13.12;100.00;102005.78;6110294;23;20089;-78
2022/10/27 03:09:47;;;;;;;31.23;16.90;;;;;;;13.14;100.00;102009.19;6135931;23;20023;-78
2022/10/27 03:12:13;;;;;;;33.85;15.05;;;;;;;13.06;100.00;102017.22;6134758;23;20002;-75
2022/10/27 03:14:46;;;;;;;37.85;16.73;;;;;;;12.93;100.00;102005.81;6135557;23;20001;-78
2022/10/27 03:17:14;;;;;;;35.60;15.73;;;;;;;12.97;100.00;102007.22;6135432;23;20434;-79
2022/10/27 03:19:39;;;;;;;31.35;16.08;;;;;;;13.02;100.00;102010.38;6159359;23;20096;-78
2022/10/27 03:22:05;;;;;;;33.40;16.10;;;;;;;13.06;100.00;102019.94;6157195;23;20052;-79
2022/10/27 03:24:31;;;;;;;28.48;13.60;;;;;;;13.10;100.00;102021.34;6133184;23;20013;-78
2022/10/27 03:27:02;;;;;;;35.50;14.43;;;;;;;13.22;100.00;102020.22;6156524;23;19998;-80
2022/10/27 03:29:28;;;;;;;30.23;13.65;;;;;;;13.22;100.00;102028.38;6133667;23;20010;-78
2022/10/27 03:31:53;;;;;;;36.03;16.15;;;;;;;13.24;100.00;102031.81;6134695;23;20017;-78
2022/10/27 03:34:19;;;;;;;31.63;13.05;;;;;;;13.29;100.00;102034.94;6134447;23;20006;-77
2022/10/27 03:36:47;;;;;;;26.25;13.25;;;;;;;13.33;100.00;102027.34;6134105;23;20498;-77
2022/10/27 03:39:13;;;;;;;29.20;12.48;;;;;;;13.31;100.00;102021.22;6134836;23;20002;-78
2022/10/27 03:41:38;;;;;;;36.92;14.50;;;;;;;13.13;100.00;102018.38;6133784;23;20002;-78
2022/10/27 03:44:07;;;;;;;23.27;12.00;;;;;;;13.25;100.00;102017.22;6134658;23;20072;-78
2022/10/27 03:46:35;;;;;;;30.10;12.35;;;;;;;13.19;100.00;102015.06;6158733;23;20060;-78
2022/10/27 03:49:11;;;;;;;30.13;13.73;;;;;;;13.20;100.00;102024.97;6133934;23;20005;-78
2022/10/27 03:51:42;;;;;;;25.83;12.50;;;;;;;13.29;100.00;102023.19;6134134;23;20016;-78
2022/10/27 03:54:07;;;;;;;30.77;13.15;;;;;;;13.36;100.00;102026.19;6134329;23;20016;-78
2022/10/27 03:56:32;;;;;;;29.40;13.50;;;;;;;13.19;100.00;102039.53;6158682;23;20037;-78
2022/10/27 03:58:58;;;;;;;31.00;15.40;;;;;;;12.93;100.00;102027.56;6134044;23;20061;-77
2022/10/27 04:01:27;;;;;;;30.58;12.88;;;;;;;12.87;100.00;102039.00;6158428;23;20005;-79
2022/10/27 04:03:55;;;;;;;29.92;13.48;;;;;;;12.61;100.00;102038.75;6135945;23;19998;-78
2022/10/27 04:06:23;;;;;;;25.73;14.32;;;;;;;12.51;100.00;102044.16;6136329;23;20093;-75
2022/10/27 04:08:49;;;;;;;30.63;14.35;;;;;;;12.49;100.00;102040.72;6135567;23;20009;-78
2022/10/27 04:11:14;;;;;;;42.97;19.88;;;;;;;12.21;100.00;102048.72;6160698;23;20028;-78
2022/10/27 04:13:40;;;;;;;38.80;18.75;;;;;;;12.02;100.00;102045.94;6135719;23;20050;-78
2022/10/27 04:16:10;;;;;;;45.40;19.60;;;;;;;11.83;100.00;102048.59;6160797;23;20032;-80
2022/10/27 04:18:38;;;;;;;54.90;24.00;;;;;;;11.80;100.00;102043.41;6134959;23;20018;-78
2022/10/27 04:21:07;;;;;;;40.97;17.95;;;;;;;11.85;100.00;102057.47;6160449;23;20072;-78
2022/10/27 04:23:33;;;;;;;34.85;19.00;;;;;;;12.00;100.00;102045.25;6135958;23;20026;-79
2022/10/27 04:25:58;;;;;;;43.30;18.20;;;;;;;12.18;100.00;102053.53;6135717;23;20010;-78
2022/10/27 04:28:24;;;;;;;31.02;14.77;;;;;;;11.93;100.00;102044.06;6135423;23;20009;-78
2022/10/27 04:30:50;;;;;;;44.17;16.45;;;;;;;11.87;100.00;102053.63;6135363;23;20053;-78
2022/10/27 04:33:18;;;;;;;33.35;15.20;;;;;;;11.79;100.00;102060.69;6136375;23;20020;-81
2022/10/27 04:35:46;;;;;;;36.30;13.60;;;;;;;11.95;100.00;102058.38;6135323;23;20073;-81
2022/10/27 04:38:14;;;;;;;47.58;19.55;;;;;;;11.81;100.00;102056.91;6135942;23;20033;-78
2022/10/27 04:40:39;;;;;;;44.40;18.35;;;;;;;11.82;100.00;102052.31;6135883;23;19998;-78
2022/10/27 04:43:06;;;;;;;36.38;17.10;;;;;;;11.75;100.00;102051.13;6135957;23;20016;-79
2022/10/27 04:45:32;;;;;;;43.40;19.70;;;;;;;11.73;100.00;102053.09;6135667;23;20016;-78
2022/10/27 04:47:58;;;;;;;45.40;18.88;;;;;;;11.65;100.00;102051.94;6135724;23;20002;-78
2022/10/27 04:50:29;;;;;;;26.27;15.02;;;;;;;11.59;100.00;102049.75;6135397;23;20006;-78
2022/10/27 04:53:00;;;;;;;50.47;24.27;;;;;;;11.66;100.00;102047.34;6136207;23;20017;-78
2022/10/27 04:55:30;;;;;;;59.28;21.45;;;;;;;11.67;100.00;102039.09;6135344;23;20005;-78
2022/10/27 04:58:01;;;;;;;45.08;19.65;;;;;;;11.55;100.00;102045.63;6135536;23;19997;-79
2022/10/27 05:00:32;;;;;;;73.15;28.67;;;;;;;11.39;100.00;102045.22;6135644;23;20068;-78
2022/10/27 05:02:58;;;;;;;39.75;21.95;;;;;;;11.21;100.00;102047.69;6135311;23;20344;-78
2022/10/27 05:05:27;;;;;;;39.70;17.65;;;;;;;11.24;100.00;102046.59;6160902;23;20002;-78
2022/10/27 05:07:55;;;;;;;33.60;18.55;;;;;;;11.21;100.00;102046.84;6161309;23;20068;-79
2022/10/27 05:10:27;;;;;;;35.05;17.30;;;;;;;11.43;100.00;102057.53;6135926;23;20013;-78
2022/10/27 05:12:52;;;;;;;37.38;17.83;;;;;;;11.49;100.00;102062.44;6135322;23;20029;-78
2022/10/27 05:15:20;;;;;;;54.65;26.63;;;;;;;11.45;100.00;102054.69;6135038;23;20009;-78
2022/10/27 05:17:46;;;;;;;54.70;19.75;;;;;;;11.51;100.00;102049.59;6134568;23;20096;-79
2022/10/27 05:20:14;;;;;;;49.38;24.65;;;;;;;11.40;100.00;102058.66;6134810;23;20084;-79
2022/10/27 05:22:40;;;;;;;53.55;23.05;;;;;;;11.32;100.00;102060.31;6134930;23;19998;-79
2022/10/27 05:25:08;;;;;;;51.95;21.40;;;;;;;11.22;100.00;102064.84;6159220;23;20002;-77
2022/10/27 05:27:38;;;;;;;57.40;25.85;;;;;;;11.11;100.00;102069.34;6158891;23;20014;-78
2022/10/27 05:30:13;;;;;;;60.58;29.15;;;;;;;11.03;100.00;102065.59;6135085;23;20014;-78
2022/10/27 05:32:42;;;;;;;56.13;26.48;;;;;;;11.04;100.00;102068.16;6134921;23;20005;-78
2022/10/27 05:35:09;;;;;;;50.42;24.50;;;;;;;11.14;100.00;102074.47;6136034;23;20009;-77
2022/10/27 05:37:35;;;;;;;58.83;24.65;;;;;;;11.14;100.00;102069.06;6124234;23;20097;-78
2022/10/27 05:40:00;;;;;;;50.05;22.27;;;;;;;11.20;100.00;102066.81;6134748;23;20060;-79
2022/10/27 05:42:27;;;;;;;48.00;23.52;;;;;;;11.20;100.00;102064.97;6136196;23;20002;-78
2022/10/27 05:44:52;;;;;;;61.58;27.73;;;;;;;11.12;100.00;102060.22;6136678;23;20029;-78
2022/10/27 05:47:18;;;;;;;55.33;28.10;;;;;;;11.18;100.00;102071.53;6141420;23;20002;-78
2022/10/27 05:50:04;;;;;;;61.85;26.30;;;;;;;11.34;100.00;102070.03;6141289;23;20010;-79
2022/10/27 05:52:35;;;;;;;60.08;28.88;;;;;;;11.43;100.00;102081.94;6107471;23;20006;-80
2022/10/27 05:55:01;;;;;;;62.03;26.63;;;;;;;11.51;100.00;102084.00;6137319;23;20002;-79
2022/10/27 05:57:30;;;;;;;46.70;24.08;;;;;;;11.59;100.00;102085.03;6136215;23;20002;-79
2022/10/27 05:59:58;;;;;;;49.17;23.98;;;;;;;11.61;100.00;102077.63;6135831;23;20002;-78
2022/10/27 06:02:23;;;;;;;38.58;20.27;;;;;;;11.47;100.00;102074.38;6135074;23;19997;-78
2022/10/27 06:04:49;;;;;;;33.42;17.02;;;;;;;11.49;100.00;102078.69;6134922;23;20002;-78
2022/10/27 06:07:17;;;;;;;43.75;21.45;;;;;;;11.51;100.00;102076.72;6136092;23;20025;-79
2022/10/27 06:09:46;;;;;;;49.92;24.10;;;;;;;11.56;100.00;102085.31;6136861;23;20008;-79
2022/10/27 06:12:14;;;;;;;39.03;19.85;;;;;;;11.49;100.00;102086.84;6162574;23;20009;-79
2022/10/27 06:14:44;;;;;;;37.67;18.23;;;;;;;11.51;100.00;102087.56;6138477;23;20008;-79
2022/10/27 06:17:53;;;;;;;39.50;18.52;;;;;;;11.56;100.00;102085.31;6159748;23;20010;-75
2022/10/27 06:20:41;;;;;;;51.33;23.45;;;;;;;11.55;100.00;102091.72;6098922;23;20006;-74
2022/10/27 06:26:42;;;;;;;55.17;24.55;;;;;;;11.55;100.00;102094.44;6113348;23;20016;-75
2022/10/27 06:29:40;;;;;;;56.83;24.35;;;;;;;11.56;100.00;102096.16;6133039;23;20036;-73
2022/10/27 06:32:20;;;;;;;43.42;19.48;;;;;;;11.58;100.00;102091.44;6102746;23;20064;-74
2022/10/27 06:35:24;;;;;;;48.17;19.45;;;;;;;11.59;100.00;102090.44;6158139;23;20104;-75
2022/10/27 06:37:55;;;;;;;51.00;22.27;;;;;;;11.67;100.00;102087.94;6100008;23;20006;-74
2022/10/27 06:40:31;;;;;;;55.67;24.45;;;;;;;11.67;100.00;102098.78;6133673;23;20002;-75
2022/10/27 06:43:09;;;;;;;62.50;24.38;;;;;;;11.59;100.00;102093.16;6133060;23;20013;-75
2022/10/27 06:45:49;;;;;;;46.85;22.85;;;;;;;11.42;100.00;102096.50;6133475;23;20017;-75
2022/10/27 06:51:54;;;;;;;61.50;29.63;;;;;;;11.44;100.00;102102.66;6044776;23;20007;-75
2022/10/27 06:54:42;;;;;;;83.20;33.10;;;;;;;11.43;100.00;102106.38;6020683;23;20079;-74
2022/10/27 07:01:07;;;;;;;61.13;28.65;;;;;;;11.69;100.00;102104.94;6115815;23;20017;-72
2022/10/27 07:03:34;;;;;;;58.65;25.60;;;;;;;11.70;100.00;102116.66;6173521;23;20067;-73
2022/10/27 07:06:00;;;;;;;63.03;28.58;;;;;;;11.78;100.00;102121.38;6183921;23;20005;-71
2022/10/27 07:08:25;;;;;;;54.10;26.90;;;;;;;11.78;100.00;102115.97;6186158;23;20088;-72
2022/10/27 07:10:51;;;;;;;55.95;24.92;;;;;;;11.84;100.00;102118.16;6181242;23;20213;-70
2022/10/27 07:13:16;;;;;;;71.32;30.60;;;;;;;11.86;100.00;102118.88;6181765;23;20424;-71
2022/10/27 07:15:42;;;;;;;69.78;27.70;;;;;;;11.90;100.00;102120.34;6180959;23;20001;-71
2022/10/27 07:18:09;;;;;;;59.55;28.80;;;;;;;11.97;100.00;102121.50;6185853;23;20005;-73
2022/10/27 07:20:37;;;;;;;62.38;27.08;;;;;;;12.06;100.00;102126.13;6186490;23;20080;-74
2022/10/27 07:23:03;;;;;;;58.22;29.65;;;;;;;12.07;100.00;102127.84;6186094;23;20490;-72
2022/10/27 07:25:30;;;;;;;45.65;26.20;;;;;;;11.98;100.00;102131.38;6181682;23;20004;-73
2022/10/27 07:27:56;;;;;;;59.05;26.88;;;;;;;12.09;100.00;102136.69;6186708;23;20431;-72
2022/10/27 07:30:25;;;;;;;50.33;24.25;;;;;;;12.19;100.00;102134.91;6184657;23;20001;-71
2022/10/27 07:32:51;;;;;;;53.45;24.92;;;;;;;12.26;100.00;102142.47;6184461;23;20080;-71
2022/10/27 07:35:16;;;;;;;46.22;24.73;;;;;;;12.28;100.00;102145.91;6185720;23;20448;-71
2022/10/27 07:37:43;;;;;;;57.72;25.60;;;;;;;12.25;100.00;102147.03;6186366;23;20004;-71
2022/10/27 07:40:09;;;;;;;40.83;23.20;;;;;;;12.49;100.00;102144.81;6186603;23;20431;-72
2022/10/27 07:42:44;;;;;;;52.03;26.27;;;;;;;12.42;100.00;102142.81;6188723;23;20003;-71
2022/10/27 07:45:10;;;;;;;47.70;21.73;;;;;;;12.21;100.00;102146.47;6186922;23;20004;-71
2022/10/27 07:47:35;;;;;;;40.92;20.33;;;;;;;12.40;100.00;102150.25;6186526;23;19997;-71
2022/10/27 07:50:01;;;;;;;49.78;25.02;;;;;;;12.49;100.00;102152.13;6187952;23;20005;-73
2022/10/27 07:52:26;;;;;;;42.53;22.63;;;;;;;12.58;100.00;102159.41;6186157;23;20063;-73
2022/10/27 07:54:52;;;;;;;49.03;24.33;;;;;;;12.87;100.00;102158.63;6186155;23;20100;-72
2022/10/27 07:57:17;;;;;;;46.55;20.20;;;;;;;12.86;100.00;102163.19;6186448;23;20112;-71
2022/10/27 07:59:42;;;;;;;49.42;21.95;;;;;;;12.89;100.00;102159.31;6186051;23;20012;-72
2022/10/27 08:02:10;;;;;;;53.55;24.90;;;;;;;12.89;100.00;102151.16;6187627;23;20005;-72
2022/10/27 08:04:35;;;;;;;42.72;19.88;;;;;;;12.86;100.00;102146.03;6188932;23;20024;-71
2022/10/27 08:07:00;;;;;;;44.58;21.45;;;;;;;12.85;100.00;102150.63;6177318;23;20015;-72
2022/10/27 08:09:26;;;;;;;49.50;20.08;;;;;;;13.11;100.00;102145.47;6179650;23;20382;-73
2022/10/27 08:11:51;;;;;;;49.50;20.92;;;;;;;12.97;100.00;102159.47;6182936;23;20016;-71
2022/10/27 08:14:18;;;;;;;41.40;18.55;;;;;;;13.02;100.00;102151.75;6185068;23;20005;-73
2022/10/27 08:16:44;;;;;;;36.05;19.10;;;;;;;13.04;100.00;102149.78;6186696;23;20007;-71
2022/10/27 08:19:09;;;;;;;45.13;21.17;;;;;;;13.14;100.00;102150.59;6185138;23;20001;-71
2022/10/27 08:21:35;;;;;;;40.45;19.67;;;;;;;13.09;100.00;102152.88;6186770;23;20001;-72
2022/10/27 08:24:00;;;;;;;37.28;20.67;;;;;;;13.12;100.00;102141.75;6188912;23;20001;-72
2022/10/27 08:26:26;;;;;;;39.35;22.27;;;;;;;13.27;100.00;102151.19;6184862;23;20032;-72
2022/10/27 08:28:51;;;;;;;51.10;24.20;;;;;;;13.42;100.00;102154.31;6188816;23;20020;-72
2022/10/27 08:31:17;;;;;;;37.30;18.60;;;;;;;13.60;100.00;102151.72;6187813;23;20005;-71
2022/10/27 08:33:43;;;;;;;39.67;18.65;;;;;;;13.74;100.00;102148.53;6187065;23;20005;-72
2022/10/27 08:36:10;;;;;;;44.10;19.17;;;;;;;13.98;100.00;102149.91;6186615;23;20013;-72
2022/10/27 08:38:37;;;;;;;42.13;16.73;;;;;;;14.08;100.00;102150.69;6187152;23;20036;-72
2022/10/27 08:41:43;;;;;;;39.40;17.23;;;;;;;13.98;100.00;102145.31;6186982;23;20136;-73
2022/10/27 08:44:13;;;;;;;33.70;18.00;;;;;;;14.23;100.00;102154.66;6178792;23;20006;-72
2022/10/27 08:47:05;;;;;;;28.23;15.75;;;;;;;14.32;100.00;102156.47;6186171;23;20021;-73
2022/10/27 08:49:50;;;;;;;38.15;15.45;;;;;;;14.43;100.00;102152.69;6188375;23;20001;-73
2022/10/27 08:52:31;;;;;;;31.83;15.82;;;;;;;14.62;100.00;102157.19;6185574;23;20009;-72
2022/10/27 08:55:03;;;;;;;26.55;15.38;;;;;;;14.70;100.00;102157.28;6185017;23;20028;-72
2022/10/27 08:57:32;;;;;;;33.22;13.50;;;;;;;14.78;100.00;102156.50;6181664;23;20005;-73
2022/10/27 08:59:58;;;;;;;33.05;15.10;;;;;;;14.63;100.00;102150.72;6185862;23;20013;-73
2022/10/27 09:02:40;;;;;;;34.22;14.20;;;;;;;14.78;100.00;102153.78;6187722;23;20004;-71
2022/10/27 09:05:21;;;;;;;30.40;14.73;;;;;;;15.01;100.00;102149.59;6186303;23;20013;-72
2022/10/27 09:08:08;;;;;;;27.23;13.40;;;;;;;15.02;100.00;102150.44;6186723;23;20013;-73
2022/10/27 09:10:36;;;;;;;23.95;11.93;;;;;;;15.13;100.00;102156.53;6187022;23;20103;-74
2022/10/27 09:13:38;;;;;;;25.90;12.07;;;;;;;15.30;100.00;102148.47;6187523;23;20028;-73
2022/10/27 09:16:07;;;;;;;21.95;11.73;;;;;;;15.37;100.00;102155.84;6187937;23;20004;-71
2022/10/27 09:18:42;;;;;;;31.65;10.88;;;;;;;15.45;100.00;102147.75;6185133;23;20001;-72
2022/10/27 09:21:17;;;;;;;24.05;12.18;;;;;;;15.61;100.00;102146.16;6185781;23;20004;-72
2022/10/27 09:24:13;;;;;;;21.35;10.95;;;;;;;15.82;100.00;102143.94;6189330;23;20047;-72
2022/10/27 09:26:40;;;;;;;23.95;9.82;;;;;;;15.96;100.00;102143.31;6173763;23;20009;-72
2022/10/27 09:29:15;;;;;;;25.02;9.88;;;;;;;15.89;100.00;102139.53;6177874;23;20127;-72
2022/10/27 09:31:48;;;;;;;26.50;9.93;;;;;;;16.10;100.00;102146.47;6185415;23;20004;-72
2022/10/27 09:34:23;;;;;;;13.50;9.20;;;;;;;16.12;100.00;102144.44;6186231;23;20028;-72
2022/10/27 09:36:49;;;;;;;23.20;9.30;;;;;;;16.42;99.79;102145.75;6183975;23;20392;-72
2022/10/27 09:39:14;;;;;;;23.67;9.00;;;;;;;16.49;99.33;102147.63;6184608;23;20015;-72
2022/10/27 09:41:40;;;;;;;20.25;9.02;;;;;;;16.62;98.62;102140.84;6187281;23;20005;-72
2022/10/27 09:44:35;;;;;;;21.20;8.10;;;;;;;16.65;99.22;102141.38;6186251;23;20001;-72
2022/10/27 09:47:00;;;;;;;18.27;8.40;;;;;;;16.97;97.87;102151.56;6173269;23;20012;-72
2022/10/27 09:49:32;;;;;;;16.42;7.53;;;;;;;17.29;96.51;102144.41;6186418;23;20001;-72
2022/10/27 09:52:01;;;;;;;;;;;;;;;17.21;95.47;102137.00;6186977;23;20012;-72
2022/10/27 09:57:07;;;;;;;15.10;6.97;;;;;;;17.07;96.08;102146.75;6123160;23;20021;-70
2022/10/27 09:59:52;;;;;;;19.37;7.87;;;;;;;16.96;95.07;102138.91;6108634;23;20010;-69
2022/10/27 10:02:30;;;;;;;19.20;7.20;;;;;;;17.02;95.10;102154.66;6107916;23;20077;-70
2022/10/27 10:05:06;;;;;;;16.25;6.88;;;;;;;17.09;96.07;102144.75;6107886;23;20434;-69
2022/10/27 10:07:55;;;;;;;17.45;7.50;;;;;;;16.85;96.18;102147.44;6108550;23;20010;-70
2022/10/27 10:10:41;;;;;;;17.88;7.38;;;;;;;16.91;96.64;102143.19;6110043;23;20057;-69
2022/10/27 10:13:13;;;;;;;23.70;8.40;;;;;;;17.12;96.05;102142.69;6107479;23;20037;-68
2022/10/27 10:15:42;;;;;;;23.70;6.82;;;;;;;17.11;95.65;102140.97;6107357;23;20069;-69
2022/10/27 10:18:27;;;;;;;17.02;6.38;;;;;;;17.08;96.02;102145.78;6107233;23;20006;-69
2022/10/27 10:21:00;;;;;;;15.93;6.25;;;;;;;17.03;96.44;102139.94;6107295;23;20010;-70
2022/10/27 10:23:45;;;;;;;16.70;7.43;;;;;;;17.02;95.75;102142.84;6106970;23;20029;-69
2022/10/27 10:26:20;;;;;;;18.08;7.07;;;;;;;17.02;95.61;102143.72;6105946;23;20002;-70
2022/10/27 10:28:49;;;;;;;19.35;6.65;;;;;;;17.20;95.51;102156.34;6106361;23;19998;-69
2022/10/27 10:31:22;;;;;;;20.33;7.20;;;;;;;16.98;96.51;102153.28;6105918;23;20055;-70
2022/10/27 10:33:47;;;;;;;15.10;6.97;;;;;;;17.07;96.15;102149.50;6106639;23;20069;-69
2022/10/27 10:36:18;;;;;;;20.77;7.50;;;;;;;17.14;95.85;102148.81;6106008;23;20008;-69
2022/10/27 10:38:49;;;;;;;19.13;7.20;;;;;;;16.99;96.50;102143.19;6106420;23;20102;-70
2022/10/27 10:41:16;;;;;;;18.15;6.90;;;;;;;17.22;95.85;102146.13;6107031;23;19997;-70
2022/10/27 10:43:42;;;;;;;17.63;7.10;;;;;;;17.57;94.18;102139.41;6132620;23;20016;-71
2022/10/27 10:46:20;;;;;;;17.02;6.90;;;;;;;17.30;95.30;102130.53;6106281;23;20469;-70
2022/10/27 10:48:52;;;;;;;16.55;7.15;;;;;;;17.60;94.86;102137.19;6106411;23;20088;-70
2022/10/27 10:51:33;;;;;;;18.15;6.25;;;;;;;17.52;94.27;102142.66;6132226;23;20012;-71
2022/10/27 10:54:03;;;;;;;13.32;6.88;;;;;;;17.60;94.04;102137.19;6106086;23;20006;-70
2022/10/27 10:56:31;;;;;;;18.90;7.22;;;;;;;17.90;93.39;102134.75;6106132;23;20002;-70
2022/10/27 10:59:08;;;;;;;17.75;6.43;;;;;;;18.32;91.77;102125.31;6105932;23;20077;-70
2022/10/27 11:01:52;;;;;;;14.98;6.60;;;;;;;18.13;91.57;102127.47;6106620;23;20006;-70
2022/10/27 11:04:31;;;;;;;17.77;6.88;;;;;;;18.04;92.07;102123.03;6106961;23;20046;-71
2022/10/27 11:06:56;;;;;;;18.65;6.47;;;;;;;18.26;92.15;102131.56;6106895;23;20002;-70
2022/10/27 11:09:26;;;;;;;15.02;5.75;;;;;;;18.58;91.22;102125.91;6132088;23;20010;-69
2022/10/27 11:11:52;;;;;;;15.80;6.43;;;;;;;18.40;90.76;102117.06;6132150;23;20080;-69
2022/10/27 11:14:18;;;;;;;16.98;6.75;;;;;;;18.50;91.46;102123.16;6106867;23;20017;-69
2022/10/27 11:16:50;;;;;;;17.58;5.97;;;;;;;18.43;91.55;102122.19;6099049;23;20001;-69
2022/10/27 11:19:19;;;;;;;15.45;7.45;;;;;;;18.09;93.34;102119.78;6103091;23;20001;-69
2022/10/27 11:21:59;;;;;;;19.25;6.63;;;;;;;18.52;91.49;102110.16;6131229;23;20008;-71
2022/10/27 11:24:33;;;;;;;15.73;6.47;;;;;;;18.75;90.69;102109.34;6105653;23;20030;-69
2022/10/27 11:27:02;;;;;;;16.10;6.18;;;;;;;18.94;90.64;102103.38;6131903;23;20354;-68
2022/10/27 11:30:13;;;;;;;16.63;6.28;;;;;;;18.85;90.70;102110.81;6103895;23;20437;-70
2022/10/27 11:33:00;;;;;;;11.30;6.03;;;;;;;19.15;89.80;102095.31;6106069;23;20090;-70
2022/10/27 11:35:57;;;;;;;12.15;5.95;;;;;;;18.92;90.99;102099.97;6106474;23;20009;-69